sensor_id;sensor_type;location;lat;lon;timestamp;P1;durP1;ratioP1;P2;durP2;ratioP2
823;SDS011;373;49.342;8.146;2023-08-31T00:00:48;2.33;;;2.20;;
823;SDS011;373;49.342;8.146;2023-08-31T00:03:16;3.72;;;2.05;;
823;SDS011;373;49.342;8.146;2023-08-31T00:05:45;3.03;;;2.25;;
823;SDS011;373;49.342;8.146;2023-08-31T00:08:14;1.90;;;1.80;;
823;SDS011;373;49.342;8.146;2023-08-31T00:10:42;2.78;;;1.88;;
823;SDS011;373;49.342;8.146;2023-08-31T00:13:10;2.90;;;2.13;;
823;SDS011;373;49.342;8.146;2023-08-31T00:15:37;2.80;;;2.45;;
823;SDS011;373;49.342;8.146;2023-08-31T00:18:06;4.15;;;2.50;;
823;SDS011;373;49.342;8.146;2023-08-31T00:20:33;2.75;;;2.55;;
823;SDS011;373;49.342;8.146;2023-08-31T00:23:01;2.90;;;2.20;;
823;SDS011;373;49.342;8.146;2023-08-31T00:25:28;2.05;;;1.85;;
823;SDS011;373;49.342;8.146;2023-08-31T00:27:56;3.70;;;2.35;;
823;SDS011;373;49.342;8.146;2023-08-31T00:30:29;3.30;;;2.50;;
823;SDS011;373;49.342;8.146;2023-08-31T00:32:57;2.63;;;2.38;;
823;SDS011;373;49.342;8.146;2023-08-31T00:35:27;2.80;;;2.60;;
823;SDS011;373;49.342;8.146;2023-08-31T00:37:56;3.53;;;2.95;;
823;SDS011;373;49.342;8.146;2023-08-31T00:40:25;3.17;;;2.58;;
823;SDS011;373;49.342;8.146;2023-08-31T00:42:53;4.30;;;3.53;;
823;SDS011;373;49.342;8.146;2023-08-31T00:45:20;3.83;;;3.35;;
823;SDS011;373;49.342;8.146;2023-08-31T00:47:48;5.13;;;3.63;;
823;SDS011;373;49.342;8.146;2023-08-31T00:50:15;3.55;;;3.00;;
823;SDS011;373;49.342;8.146;2023-08-31T00:52:43;4.03;;;3.63;;
823;SDS011;373;49.342;8.146;2023-08-31T00:55:10;4.55;;;3.75;;
823;SDS011;373;49.342;8.146;2023-08-31T00:57:39;3.97;;;3.30;;
823;SDS011;373;49.342;8.146;2023-08-31T01:00:08;2.85;;;2.55;;
823;SDS011;373;49.342;8.146;2023-08-31T01:02:40;4.10;;;3.80;;
823;SDS011;373;49.342;8.146;2023-08-31T01:05:13;3.67;;;3.13;;
823;SDS011;373;49.342;8.146;2023-08-31T01:07:53;4.32;;;3.60;;
823;SDS011;373;49.342;8.146;2023-08-31T01:10:27;4.80;;;3.20;;
823;SDS011;373;49.342;8.146;2023-08-31T01:13:02;3.97;;;3.55;;
823;SDS011;373;49.342;8.146;2023-08-31T01:15:36;4.45;;;3.38;;
823;SDS011;373;49.342;8.146;2023-08-31T01:18:05;4.90;;;3.55;;
823;SDS011;373;49.342;8.146;2023-08-31T01:20:38;4.15;;;3.67;;
823;SDS011;373;49.342;8.146;2023-08-31T01:23:13;5.25;;;4.20;;
823;SDS011;373;49.342;8.146;2023-08-31T01:25:44;5.40;;;4.90;;
823;SDS011;373;49.342;8.146;2023-08-31T01:28:14;5.72;;;5.22;;
823;SDS011;373;49.342;8.146;2023-08-31T01:30:41;8.73;;;5.75;;
823;SDS011;373;49.342;8.146;2023-08-31T01:33:08;5.10;;;4.63;;
823;SDS011;373;49.342;8.146;2023-08-31T01:35:36;4.35;;;3.95;;
823;SDS011;373;49.342;8.146;2023-08-31T01:38:07;5.47;;;4.60;;
823;SDS011;373;49.342;8.146;2023-08-31T01:40:38;5.35;;;4.90;;
823;SDS011;373;49.342;8.146;2023-08-31T01:43:10;5.68;;;4.28;;
823;SDS011;373;49.342;8.146;2023-08-31T01:45:38;6.85;;;5.10;;
823;SDS011;373;49.342;8.146;2023-08-31T01:48:07;6.93;;;4.25;;
823;SDS011;373;49.342;8.146;2023-08-31T01:50:35;6.00;;;4.05;;
823;SDS011;373;49.342;8.146;2023-08-31T01:53:02;5.00;;;4.53;;
823;SDS011;373;49.342;8.146;2023-08-31T01:55:32;4.50;;;3.40;;
823;SDS011;373;49.342;8.146;2023-08-31T01:57:59;4.05;;;3.65;;
823;SDS011;373;49.342;8.146;2023-08-31T02:00:29;4.93;;;3.95;;
823;SDS011;373;49.342;8.146;2023-08-31T02:03:01;4.30;;;3.80;;
823;SDS011;373;49.342;8.146;2023-08-31T02:05:28;5.53;;;3.42;;
823;SDS011;373;49.342;8.146;2023-08-31T02:07:55;4.35;;;3.53;;
823;SDS011;373;49.342;8.146;2023-08-31T02:10:22;6.78;;;3.28;;
823;SDS011;373;49.342;8.146;2023-08-31T02:12:49;4.50;;;3.63;;
823;SDS011;373;49.342;8.146;2023-08-31T02:15:16;4.20;;;2.97;;
823;SDS011;373;49.342;8.146;2023-08-31T02:17:44;5.40;;;3.35;;
823;SDS011;373;49.342;8.146;2023-08-31T02:20:14;5.80;;;2.92;;
823;SDS011;373;49.342;8.146;2023-08-31T02:22:41;6.10;;;3.83;;
823;SDS011;373;49.342;8.146;2023-08-31T02:25:08;6.20;;;3.53;;
823;SDS011;373;49.342;8.146;2023-08-31T02:27:35;3.65;;;3.22;;
823;SDS011;373;49.342;8.146;2023-08-31T02:30:02;6.00;;;3.38;;
823;SDS011;373;49.342;8.146;2023-08-31T02:32:30;4.50;;;3.20;;
823;SDS011;373;49.342;8.146;2023-08-31T02:34:59;3.40;;;3.10;;
823;SDS011;373;49.342;8.146;2023-08-31T02:37:26;7.65;;;3.65;;
823;SDS011;373;49.342;8.146;2023-08-31T02:39:54;3.65;;;3.28;;
823;SDS011;373;49.342;8.146;2023-08-31T02:42:21;3.63;;;2.95;;
823;SDS011;373;49.342;8.146;2023-08-31T02:44:51;4.53;;;3.38;;
823;SDS011;373;49.342;8.146;2023-08-31T02:47:19;3.88;;;3.20;;
823;SDS011;373;49.342;8.146;2023-08-31T02:49:47;4.05;;;3.17;;
823;SDS011;373;49.342;8.146;2023-08-31T02:52:15;4.85;;;3.10;;
823;SDS011;373;49.342;8.146;2023-08-31T02:54:42;4.53;;;3.00;;
823;SDS011;373;49.342;8.146;2023-08-31T02:57:09;5.32;;;3.05;;
823;SDS011;373;49.342;8.146;2023-08-31T02:59:37;3.80;;;2.88;;
823;SDS011;373;49.342;8.146;2023-08-31T03:02:08;4.85;;;2.95;;
823;SDS011;373;49.342;8.146;2023-08-31T03:04:35;3.50;;;2.95;;
823;SDS011;373;49.342;8.146;2023-08-31T03:07:03;5.05;;;3.45;;
823;SDS011;373;49.342;8.146;2023-08-31T03:09:33;3.50;;;2.75;;
823;SDS011;373;49.342;8.146;2023-08-31T03:12:00;6.38;;;3.30;;
823;SDS011;373;49.342;8.146;2023-08-31T03:14:28;4.07;;;2.58;;
823;SDS011;373;49.342;8.146;2023-08-31T03:16:55;2.85;;;2.58;;
823;SDS011;373;49.342;8.146;2023-08-31T03:19:23;4.43;;;2.75;;
823;SDS011;373;49.342;8.146;2023-08-31T03:21:50;3.85;;;2.85;;
823;SDS011;373;49.342;8.146;2023-08-31T03:24:17;4.18;;;2.75;;
823;SDS011;373;49.342;8.146;2023-08-31T03:26:45;3.17;;;2.47;;
823;SDS011;373;49.342;8.146;2023-08-31T03:29:12;3.10;;;2.22;;
823;SDS011;373;49.342;8.146;2023-08-31T03:31:39;4.82;;;2.63;;
823;SDS011;373;49.342;8.146;2023-08-31T03:34:06;3.55;;;2.45;;
823;SDS011;373;49.342;8.146;2023-08-31T03:36:33;4.85;;;2.63;;
823;SDS011;373;49.342;8.146;2023-08-31T03:39:01;5.25;;;3.40;;
823;SDS011;373;49.342;8.146;2023-08-31T05:01:58;3.08;;;2.13;;
823;SDS011;373;49.342;8.146;2023-08-31T05:04:25;4.90;;;2.53;;
823;SDS011;373;49.342;8.146;2023-08-31T05:06:53;3.50;;;2.10;;
823;SDS011;373;49.342;8.146;2023-08-31T05:09:20;3.70;;;2.70;;
823;SDS011;373;49.342;8.146;2023-08-31T05:11:48;3.42;;;2.42;;
823;SDS011;373;49.342;8.146;2023-08-31T05:14:15;2.55;;;2.33;;
823;SDS011;373;49.342;8.146;2023-08-31T05:16:42;4.75;;;2.05;;
823;SDS011;373;49.342;8.146;2023-08-31T05:19:11;2.67;;;2.30;;
823;SDS011;373;49.342;8.146;2023-08-31T05:21:38;3.15;;;2.58;;
823;SDS011;373;49.342;8.146;2023-08-31T05:24:05;2.85;;;2.40;;
823;SDS011;373;49.342;8.146;2023-08-31T05:26:32;2.60;;;2.15;;
823;SDS011;373;49.342;8.146;2023-08-31T05:29:00;3.13;;;2.13;;
823;SDS011;373;49.342;8.146;2023-08-31T05:31:29;6.40;;;3.50;;
823;SDS011;373;49.342;8.146;2023-08-31T05:33:56;3.42;;;2.53;;
823;SDS011;373;49.342;8.146;2023-08-31T05:36:25;3.47;;;2.50;;
823;SDS011;373;49.342;8.146;2023-08-31T05:38:52;2.85;;;2.22;;
823;SDS011;373;49.342;8.146;2023-08-31T05:41:19;3.00;;;2.70;;
823;SDS011;373;49.342;8.146;2023-08-31T05:43:46;2.88;;;2.58;;
823;SDS011;373;49.342;8.146;2023-08-31T05:46:13;3.80;;;3.33;;
823;SDS011;373;49.342;8.146;2023-08-31T05:48:40;3.72;;;3.30;;
823;SDS011;373;49.342;8.146;2023-08-31T05:51:08;3.65;;;3.35;;
823;SDS011;373;49.342;8.146;2023-08-31T05:53:36;5.90;;;3.50;;
823;SDS011;373;49.342;8.146;2023-08-31T05:56:03;6.32;;;3.70;;
823;SDS011;373;49.342;8.146;2023-08-31T05:58:32;3.42;;;3.00;;
823;SDS011;373;49.342;8.146;2023-08-31T06:01:00;3.40;;;3.10;;
823;SDS011;373;49.342;8.146;2023-08-31T06:03:28;3.92;;;3.00;;
823;SDS011;373;49.342;8.146;2023-08-31T06:05:57;3.50;;;2.58;;
823;SDS011;373;49.342;8.146;2023-08-31T06:08:25;3.80;;;2.72;;
823;SDS011;373;49.342;8.146;2023-08-31T06:10:54;3.60;;;2.78;;
823;SDS011;373;49.342;8.146;2023-08-31T06:13:21;3.92;;;2.10;;
823;SDS011;373;49.342;8.146;2023-08-31T06:15:48;4.07;;;2.47;;
823;SDS011;373;49.342;8.146;2023-08-31T06:18:15;3.95;;;2.70;;
823;SDS011;373;49.342;8.146;2023-08-31T06:20:42;4.43;;;2.38;;
823;SDS011;373;49.342;8.146;2023-08-31T06:23:09;4.75;;;2.53;;
823;SDS011;373;49.342;8.146;2023-08-31T06:25:37;3.47;;;2.17;;
823;SDS011;373;49.342;8.146;2023-08-31T06:28:06;2.70;;;2.33;;
823;SDS011;373;49.342;8.146;2023-08-31T06:30:34;2.30;;;2.10;;
823;SDS011;373;49.342;8.146;2023-08-31T06:33:01;3.00;;;1.55;;
823;SDS011;373;49.342;8.146;2023-08-31T06:35:28;3.58;;;2.28;;
823;SDS011;373;49.342;8.146;2023-08-31T06:37:56;2.35;;;1.75;;
823;SDS011;373;49.342;8.146;2023-08-31T06:40:23;3.80;;;2.10;;
823;SDS011;373;49.342;8.146;2023-08-31T06:42:51;5.78;;;2.30;;
823;SDS011;373;49.342;8.146;2023-08-31T06:45:20;2.83;;;1.85;;
823;SDS011;373;49.342;8.146;2023-08-31T06:47:47;2.60;;;1.52;;
823;SDS011;373;49.342;8.146;2023-08-31T06:50:14;2.13;;;1.80;;
823;SDS011;373;49.342;8.146;2023-08-31T06:52:41;2.40;;;1.65;;
823;SDS011;373;49.342;8.146;2023-08-31T06:55:11;4.07;;;1.60;;
823;SDS011;373;49.342;8.146;2023-08-31T06:57:38;2.30;;;1.80;;
823;SDS011;373;49.342;8.146;2023-08-31T07:00:07;2.58;;;1.42;;
823;SDS011;373;49.342;8.146;2023-08-31T07:02:40;2.72;;;1.48;;
823;SDS011;373;49.342;8.146;2023-08-31T07:05:07;3.45;;;1.80;;
823;SDS011;373;49.342;8.146;2023-08-31T07:07:36;2.80;;;1.35;;
823;SDS011;373;49.342;8.146;2023-08-31T07:10:04;2.58;;;1.30;;
823;SDS011;373;49.342;8.146;2023-08-31T07:12:32;1.70;;;1.05;;
823;SDS011;373;49.342;8.146;2023-08-31T07:14:59;2.92;;;1.58;;
823;SDS011;373;49.342;8.146;2023-08-31T07:17:27;3.15;;;1.27;;
823;SDS011;373;49.342;8.146;2023-08-31T07:19:56;3.10;;;1.75;;
823;SDS011;373;49.342;8.146;2023-08-31T07:22:23;1.70;;;1.42;;
823;SDS011;373;49.342;8.146;2023-08-31T07:24:50;2.90;;;1.70;;
823;SDS011;373;49.342;8.146;2023-08-31T07:27:17;2.80;;;1.65;;
823;SDS011;373;49.342;8.146;2023-08-31T07:29:45;4.72;;;1.73;;
823;SDS011;373;49.342;8.146;2023-08-31T07:32:12;4.10;;;1.50;;
823;SDS011;373;49.342;8.146;2023-08-31T07:34:39;3.28;;;1.50;;
823;SDS011;373;49.342;8.146;2023-08-31T07:37:07;3.75;;;1.50;;
823;SDS011;373;49.342;8.146;2023-08-31T07:39:35;3.10;;;1.88;;
823;SDS011;373;49.342;8.146;2023-08-31T07:42:05;3.72;;;1.52;;
823;SDS011;373;49.342;8.146;2023-08-31T07:44:32;3.08;;;1.20;;
823;SDS011;373;49.342;8.146;2023-08-31T07:47:00;2.75;;;1.63;;
823;SDS011;373;49.342;8.146;2023-08-31T07:49:27;2.13;;;1.40;;
823;SDS011;373;49.342;8.146;2023-08-31T07:51:54;2.17;;;1.58;;
823;SDS011;373;49.342;8.146;2023-08-31T07:54:23;1.90;;;1.30;;
823;SDS011;373;49.342;8.146;2023-08-31T07:56:51;4.18;;;1.77;;
823;SDS011;373;49.342;8.146;2023-08-31T07:59:18;2.20;;;1.30;;
823;SDS011;373;49.342;8.146;2023-08-31T08:01:45;2.83;;;1.73;;
823;SDS011;373;49.342;8.146;2023-08-31T08:04:13;2.95;;;1.83;;
823;SDS011;373;49.342;8.146;2023-08-31T08:06:40;2.28;;;1.33;;
823;SDS011;373;49.342;8.146;2023-08-31T11:15:26;3.33;;;1.65;;
823;SDS011;373;49.342;8.146;2023-08-31T11:17:55;3.10;;;1.88;;
823;SDS011;373;49.342;8.146;2023-08-31T11:20:23;3.55;;;2.08;;
823;SDS011;373;49.342;8.146;2023-08-31T11:22:53;3.58;;;2.03;;
823;SDS011;373;49.342;8.146;2023-08-31T11:25:21;3.42;;;1.27;;
823;SDS011;373;49.342;8.146;2023-08-31T11:27:52;4.28;;;1.85;;
823;SDS011;373;49.342;8.146;2023-08-31T11:30:20;3.20;;;1.92;;
823;SDS011;373;49.342;8.146;2023-08-31T11:32:50;2.70;;;1.70;;
823;SDS011;373;49.342;8.146;2023-08-31T11:35:18;6.20;;;2.05;;
823;SDS011;373;49.342;8.146;2023-08-31T11:37:50;3.03;;;1.65;;
823;SDS011;373;49.342;8.146;2023-08-31T11:40:18;3.95;;;2.10;;
823;SDS011;373;49.342;8.146;2023-08-31T11:42:45;4.15;;;1.67;;
823;SDS011;373;49.342;8.146;2023-08-31T11:45:14;3.10;;;1.50;;
823;SDS011;373;49.342;8.146;2023-08-31T11:47:41;4.72;;;2.00;;
823;SDS011;373;49.342;8.146;2023-08-31T11:50:11;3.42;;;1.90;;
823;SDS011;373;49.342;8.146;2023-08-31T11:52:40;2.92;;;1.60;;
823;SDS011;373;49.342;8.146;2023-08-31T11:55:10;1.85;;;1.40;;
823;SDS011;373;49.342;8.146;2023-08-31T11:57:37;4.50;;;2.20;;
823;SDS011;373;49.342;8.146;2023-08-31T12:00:05;3.97;;;2.05;;
823;SDS011;373;49.342;8.146;2023-08-31T12:02:36;3.40;;;1.63;;
823;SDS011;373;49.342;8.146;2023-08-31T12:05:03;3.58;;;1.70;;
823;SDS011;373;49.342;8.146;2023-08-31T12:07:32;2.88;;;1.70;;
823;SDS011;373;49.342;8.146;2023-08-31T12:10:06;3.67;;;1.90;;
823;SDS011;373;49.342;8.146;2023-08-31T12:12:34;3.47;;;1.60;;
823;SDS011;373;49.342;8.146;2023-08-31T12:15:02;4.50;;;1.77;;
823;SDS011;373;49.342;8.146;2023-08-31T12:17:31;3.72;;;1.58;;
823;SDS011;373;49.342;8.146;2023-08-31T12:20:03;3.40;;;1.77;;
823;SDS011;373;49.342;8.146;2023-08-31T12:22:32;2.20;;;1.67;;
823;SDS011;373;49.342;8.146;2023-08-31T12:25:00;5.45;;;2.17;;
823;SDS011;373;49.342;8.146;2023-08-31T12:27:27;3.10;;;1.77;;
823;SDS011;373;49.342;8.146;2023-08-31T12:29:55;1.95;;;1.73;;
823;SDS011;373;49.342;8.146;2023-08-31T12:32:22;3.17;;;1.52;;
823;SDS011;373;49.342;8.146;2023-08-31T12:34:50;3.67;;;1.85;;
823;SDS011;373;49.342;8.146;2023-08-31T12:37:16;3.33;;;1.80;;
823;SDS011;373;49.342;8.146;2023-08-31T12:39:45;2.47;;;1.75;;
823;SDS011;373;49.342;8.146;2023-08-31T12:42:12;2.88;;;1.73;;
823;SDS011;373;49.342;8.146;2023-08-31T12:44:39;3.65;;;2.15;;
823;SDS011;373;49.342;8.146;2023-08-31T12:47:06;4.45;;;1.90;;
823;SDS011;373;49.342;8.146;2023-08-31T12:49:33;3.75;;;1.75;;
823;SDS011;373;49.342;8.146;2023-08-31T12:52:00;3.80;;;1.80;;
823;SDS011;373;49.342;8.146;2023-08-31T12:54:28;3.15;;;1.70;;
823;SDS011;373;49.342;8.146;2023-08-31T12:56:56;3.55;;;1.77;;
823;SDS011;373;49.342;8.146;2023-08-31T12:59:23;3.00;;;1.80;;
823;SDS011;373;49.342;8.146;2023-08-31T13:01:50;6.97;;;2.72;;
823;SDS011;373;49.342;8.146;2023-08-31T13:04:18;3.85;;;2.00;;
823;SDS011;373;49.342;8.146;2023-08-31T13:06:45;2.45;;;1.70;;
823;SDS011;373;49.342;8.146;2023-08-31T13:09:13;3.42;;;1.95;;
823;SDS011;373;49.342;8.146;2023-08-31T13:11:40;3.47;;;1.88;;
823;SDS011;373;49.342;8.146;2023-08-31T13:14:09;3.97;;;1.70;;
823;SDS011;373;49.342;8.146;2023-08-31T13:16:36;2.30;;;1.60;;
823;SDS011;373;49.342;8.146;2023-08-31T13:19:05;3.22;;;2.15;;
823;SDS011;373;49.342;8.146;2023-08-31T13:21:32;4.13;;;2.05;;
823;SDS011;373;49.342;8.146;2023-08-31T13:23:59;2.72;;;1.85;;
823;SDS011;373;49.342;8.146;2023-08-31T13:26:26;3.40;;;1.77;;
823;SDS011;373;49.342;8.146;2023-08-31T13:28:53;2.92;;;1.67;;
823;SDS011;373;49.342;8.146;2023-08-31T13:31:22;3.28;;;2.08;;
823;SDS011;373;49.342;8.146;2023-08-31T13:33:49;3.83;;;2.13;;
823;SDS011;373;49.342;8.146;2023-08-31T13:36:16;4.47;;;2.10;;
823;SDS011;373;49.342;8.146;2023-08-31T13:38:43;2.70;;;1.60;;
823;SDS011;373;49.342;8.146;2023-08-31T13:41:10;3.78;;;2.00;;
823;SDS011;373;49.342;8.146;2023-08-31T13:43:37;3.30;;;1.90;;
823;SDS011;373;49.342;8.146;2023-08-31T13:46:04;2.95;;;1.75;;
823;SDS011;373;49.342;8.146;2023-08-31T13:48:33;3.95;;;1.70;;
823;SDS011;373;49.342;8.146;2023-08-31T13:51:00;5.10;;;1.95;;
823;SDS011;373;49.342;8.146;2023-08-31T13:53:28;5.82;;;1.90;;
823;SDS011;373;49.342;8.146;2023-08-31T13:55:55;2.47;;;1.70;;
823;SDS011;373;49.342;8.146;2023-08-31T13:58:22;3.55;;;1.98;;
823;SDS011;373;49.342;8.146;2023-08-31T14:00:49;2.00;;;1.52;;
823;SDS011;373;49.342;8.146;2023-08-31T14:03:16;3.17;;;1.60;;
823;SDS011;373;49.342;8.146;2023-08-31T14:05:46;4.30;;;1.80;;
823;SDS011;373;49.342;8.146;2023-08-31T14:08:14;5.22;;;2.22;;
823;SDS011;373;49.342;8.146;2023-08-31T14:10:41;4.88;;;2.05;;
823;SDS011;373;49.342;8.146;2023-08-31T14:13:08;4.20;;;2.00;;
823;SDS011;373;49.342;8.146;2023-08-31T14:15:35;3.30;;;2.13;;
823;SDS011;373;49.342;8.146;2023-08-31T14:18:09;3.90;;;2.08;;
823;SDS011;373;49.342;8.146;2023-08-31T14:20:36;4.90;;;2.03;;
823;SDS011;373;49.342;8.146;2023-08-31T14:23:05;4.88;;;2.20;;
823;SDS011;373;49.342;8.146;2023-08-31T14:25:35;5.13;;;2.03;;
823;SDS011;373;49.342;8.146;2023-08-31T14:28:03;3.88;;;2.20;;
823;SDS011;373;49.342;8.146;2023-08-31T14:30:31;3.10;;;1.80;;
823;SDS011;373;49.342;8.146;2023-08-31T14:32:58;3.03;;;1.90;;
823;SDS011;373;49.342;8.146;2023-08-31T14:35:25;5.63;;;2.53;;
823;SDS011;373;49.342;8.146;2023-08-31T14:37:52;4.07;;;1.98;;
823;SDS011;373;49.342;8.146;2023-08-31T14:40:20;5.00;;;2.35;;
823;SDS011;373;49.342;8.146;2023-08-31T14:42:48;3.40;;;1.75;;
823;SDS011;373;49.342;8.146;2023-08-31T14:45:15;3.67;;;2.47;;
823;SDS011;373;49.342;8.146;2023-08-31T14:47:42;3.25;;;1.80;;
823;SDS011;373;49.342;8.146;2023-08-31T14:50:09;3.65;;;1.88;;
823;SDS011;373;49.342;8.146;2023-08-31T14:52:36;3.33;;;2.03;;
823;SDS011;373;49.342;8.146;2023-08-31T14:55:03;5.57;;;1.95;;
823;SDS011;373;49.342;8.146;2023-08-31T14:57:32;3.05;;;1.88;;
823;SDS011;373;49.342;8.146;2023-08-31T14:59:59;6.20;;;2.17;;
823;SDS011;373;49.342;8.146;2023-08-31T15:02:30;3.88;;;1.90;;
823;SDS011;373;49.342;8.146;2023-08-31T15:04:57;3.88;;;2.17;;
823;SDS011;373;49.342;8.146;2023-08-31T15:07:24;4.40;;;2.40;;
823;SDS011;373;49.342;8.146;2023-08-31T15:09:51;2.97;;;1.90;;
823;SDS011;373;49.342;8.146;2023-08-31T15:12:18;3.85;;;1.92;;
823;SDS011;373;49.342;8.146;2023-08-31T15:14:46;3.45;;;1.42;;
823;SDS011;373;49.342;8.146;2023-08-31T15:17:14;3.05;;;2.10;;
823;SDS011;373;49.342;8.146;2023-08-31T15:19:41;8.18;;;2.08;;
823;SDS011;373;49.342;8.146;2023-08-31T15:22:08;3.67;;;1.90;;
823;SDS011;373;49.342;8.146;2023-08-31T15:24:35;4.55;;;2.10;;
823;SDS011;373;49.342;8.146;2023-08-31T15:27:02;4.13;;;2.10;;
823;SDS011;373;49.342;8.146;2023-08-31T15:29:29;3.92;;;1.90;;
823;SDS011;373;49.342;8.146;2023-08-31T15:32:00;5.55;;;1.95;;
823;SDS011;373;49.342;8.146;2023-08-31T15:34:27;3.10;;;1.85;;
823;SDS011;373;49.342;8.146;2023-08-31T15:36:55;4.38;;;2.10;;
823;SDS011;373;49.342;8.146;2023-08-31T15:39:23;4.22;;;2.00;;
823;SDS011;373;49.342;8.146;2023-08-31T15:41:50;3.25;;;2.22;;
823;SDS011;373;49.342;8.146;2023-08-31T15:44:18;4.45;;;2.10;;
823;SDS011;373;49.342;8.146;2023-08-31T15:46:45;3.63;;;1.95;;
823;SDS011;373;49.342;8.146;2023-08-31T15:49:13;5.28;;;2.65;;
823;SDS011;373;49.342;8.146;2023-08-31T15:51:40;5.28;;;2.03;;
823;SDS011;373;49.342;8.146;2023-08-31T15:54:07;4.97;;;2.42;;
823;SDS011;373;49.342;8.146;2023-08-31T15:56:34;4.03;;;1.88;;
823;SDS011;373;49.342;8.146;2023-08-31T15:59:01;4.07;;;2.03;;
823;SDS011;373;49.342;8.146;2023-08-31T16:01:29;4.28;;;1.88;;
823;SDS011;373;49.342;8.146;2023-08-31T16:03:56;4.10;;;1.98;;
823;SDS011;373;49.342;8.146;2023-08-31T16:06:25;4.82;;;1.98;;
823;SDS011;373;49.342;8.146;2023-08-31T16:08:52;3.83;;;2.22;;
823;SDS011;373;49.342;8.146;2023-08-31T16:11:19;3.58;;;2.28;;
823;SDS011;373;49.342;8.146;2023-08-31T16:13:49;4.75;;;2.10;;
823;SDS011;373;49.342;8.146;2023-08-31T16:16:16;3.17;;;2.08;;
823;SDS011;373;49.342;8.146;2023-08-31T16:18:43;3.90;;;2.40;;
823;SDS011;373;49.342;8.146;2023-08-31T16:21:10;4.03;;;2.05;;
823;SDS011;373;49.342;8.146;2023-08-31T16:23:39;3.03;;;2.17;;
823;SDS011;373;49.342;8.146;2023-08-31T16:26:06;5.35;;;2.20;;
823;SDS011;373;49.342;8.146;2023-08-31T16:28:33;2.55;;;1.90;;
823;SDS011;373;49.342;8.146;2023-08-31T16:31:01;2.88;;;1.80;;
823;SDS011;373;49.342;8.146;2023-08-31T16:33:29;3.35;;;1.83;;
823;SDS011;373;49.342;8.146;2023-08-31T16:35:56;5.00;;;2.88;;
823;SDS011;373;49.342;8.146;2023-08-31T16:38:24;5.25;;;2.15;;
823;SDS011;373;49.342;8.146;2023-08-31T16:40:52;7.45;;;2.20;;
823;SDS011;373;49.342;8.146;2023-08-31T16:43:19;3.60;;;1.98;;
823;SDS011;373;49.342;8.146;2023-08-31T16:45:46;6.97;;;2.25;;
823;SDS011;373;49.342;8.146;2023-08-31T16:48:14;5.43;;;2.50;;
823;SDS011;373;49.342;8.146;2023-08-31T16:50:42;4.85;;;2.42;;
823;SDS011;373;49.342;8.146;2023-08-31T16:53:09;6.40;;;2.53;;
823;SDS011;373;49.342;8.146;2023-08-31T16:55:36;7.43;;;2.55;;
823;SDS011;373;49.342;8.146;2023-08-31T16:58:06;2.65;;;2.20;;
823;SDS011;373;49.342;8.146;2023-08-31T17:00:33;5.90;;;2.75;;
823;SDS011;373;49.342;8.146;2023-08-31T17:03:00;5.20;;;2.55;;
823;SDS011;373;49.342;8.146;2023-08-31T17:05:28;4.45;;;2.13;;
823;SDS011;373;49.342;8.146;2023-08-31T17:07:55;3.53;;;2.00;;
823;SDS011;373;49.342;8.146;2023-08-31T17:10:23;5.47;;;2.85;;
823;SDS011;373;49.342;8.146;2023-08-31T17:12:50;5.43;;;2.90;;
823;SDS011;373;49.342;8.146;2023-08-31T17:15:19;4.88;;;1.92;;
823;SDS011;373;49.342;8.146;2023-08-31T17:17:49;4.18;;;2.50;;
823;SDS011;373;49.342;8.146;2023-08-31T17:20:16;4.15;;;2.65;;
823;SDS011;373;49.342;8.146;2023-08-31T17:22:43;5.60;;;2.40;;
823;SDS011;373;49.342;8.146;2023-08-31T18:02:20;3.20;;;2.35;;
823;SDS011;373;49.342;8.146;2023-08-31T18:04:47;2.15;;;1.95;;
823;SDS011;373;49.342;8.146;2023-08-31T18:07:15;3.35;;;2.28;;
823;SDS011;373;49.342;8.146;2023-08-31T18:09:48;5.90;;;2.45;;
823;SDS011;373;49.342;8.146;2023-08-31T18:12:16;2.58;;;2.33;;
823;SDS011;373;49.342;8.146;2023-08-31T18:14:45;6.15;;;1.90;;
823;SDS011;373;49.342;8.146;2023-08-31T18:17:13;4.30;;;1.98;;
823;SDS011;373;49.342;8.146;2023-08-31T18:19:49;3.13;;;2.35;;
823;SDS011;373;49.342;8.146;2023-08-31T18:22:20;3.47;;;2.20;;
823;SDS011;373;49.342;8.146;2023-08-31T18:24:50;3.92;;;2.45;;
823;SDS011;373;49.342;8.146;2023-08-31T18:27:17;3.72;;;2.83;;
823;SDS011;373;49.342;8.146;2023-08-31T18:29:45;5.03;;;2.38;;
823;SDS011;373;49.342;8.146;2023-08-31T18:32:16;4.18;;;2.33;;
823;SDS011;373;49.342;8.146;2023-08-31T18:34:46;3.92;;;2.80;;
823;SDS011;373;49.342;8.146;2023-08-31T18:37:19;7.30;;;2.67;;
823;SDS011;373;49.342;8.146;2023-08-31T18:39:52;3.83;;;2.33;;
823;SDS011;373;49.342;8.146;2023-08-31T18:42:26;4.63;;;1.95;;
823;SDS011;373;49.342;8.146;2023-08-31T18:44:57;4.07;;;2.20;;
823;SDS011;373;49.342;8.146;2023-08-31T18:47:24;4.07;;;1.90;;
823;SDS011;373;49.342;8.146;2023-08-31T18:49:53;2.63;;;2.08;;
823;SDS011;373;49.342;8.146;2023-08-31T18:52:20;2.67;;;2.17;;
823;SDS011;373;49.342;8.146;2023-08-31T18:54:53;5.22;;;2.22;;
823;SDS011;373;49.342;8.146;2023-08-31T18:57:21;4.43;;;2.13;;
823;SDS011;373;49.342;8.146;2023-08-31T18:59:48;3.17;;;2.33;;
823;SDS011;373;49.342;8.146;2023-08-31T19:02:16;3.40;;;2.20;;
823;SDS011;373;49.342;8.146;2023-08-31T19:04:46;4.35;;;2.00;;
823;SDS011;373;49.342;8.146;2023-08-31T19:07:18;2.72;;;1.70;;
823;SDS011;373;49.342;8.146;2023-08-31T19:09:56;3.72;;;2.30;;
823;SDS011;373;49.342;8.146;2023-08-31T19:12:23;4.13;;;2.00;;
823;SDS011;373;49.342;8.146;2023-08-31T19:14:55;4.82;;;2.45;;
823;SDS011;373;49.342;8.146;2023-08-31T19:17:23;6.40;;;2.28;;
823;SDS011;373;49.342;8.146;2023-08-31T19:19:51;4.65;;;2.25;;
823;SDS011;373;49.342;8.146;2023-08-31T19:22:20;5.97;;;2.00;;
823;SDS011;373;49.342;8.146;2023-08-31T19:24:47;5.00;;;2.35;;
823;SDS011;373;49.342;8.146;2023-08-31T19:27:14;3.65;;;2.00;;
823;SDS011;373;49.342;8.146;2023-08-31T19:29:45;4.22;;;2.38;;
823;SDS011;373;49.342;8.146;2023-08-31T19:32:12;3.33;;;2.22;;
823;SDS011;373;49.342;8.146;2023-08-31T19:34:54;5.70;;;2.60;;
823;SDS011;373;49.342;8.146;2023-08-31T19:37:51;3.22;;;1.90;;
823;SDS011;373;49.342;8.146;2023-08-31T19:40:20;2.92;;;2.20;;
823;SDS011;373;49.342;8.146;2023-08-31T19:42:48;3.38;;;2.38;;
823;SDS011;373;49.342;8.146;2023-08-31T19:49:09;2.50;;;2.10;;
823;SDS011;373;49.342;8.146;2023-08-31T19:51:36;3.10;;;2.33;;
823;SDS011;373;49.342;8.146;2023-08-31T19:54:04;3.38;;;2.25;;
823;SDS011;373;49.342;8.146;2023-08-31T19:56:33;2.90;;;2.47;;
823;SDS011;373;49.342;8.146;2023-08-31T19:59:00;2.72;;;1.95;;
823;SDS011;373;49.342;8.146;2023-08-31T20:01:28;3.10;;;2.28;;
823;SDS011;373;49.342;8.146;2023-08-31T20:03:57;5.82;;;2.60;;
823;SDS011;373;49.342;8.146;2023-08-31T20:06:24;2.92;;;2.58;;
823;SDS011;373;49.342;8.146;2023-08-31T20:08:51;5.15;;;2.65;;
823;SDS011;373;49.342;8.146;2023-08-31T20:11:19;3.95;;;3.08;;
823;SDS011;373;49.342;8.146;2023-08-31T20:13:47;4.07;;;2.80;;
823;SDS011;373;49.342;8.146;2023-08-31T20:16:15;6.25;;;2.17;;
823;SDS011;373;49.342;8.146;2023-08-31T20:18:42;3.03;;;2.70;;
823;SDS011;373;49.342;8.146;2023-08-31T20:21:09;3.35;;;2.40;;
823;SDS011;373;49.342;8.146;2023-08-31T20:23:39;4.55;;;2.72;;
823;SDS011;373;49.342;8.146;2023-08-31T20:26:06;3.50;;;2.67;;
823;SDS011;373;49.342;8.146;2023-08-31T20:28:35;3.75;;;2.47;;
823;SDS011;373;49.342;8.146;2023-08-31T20:31:02;4.75;;;2.90;;
823;SDS011;373;49.342;8.146;2023-08-31T20:33:29;3.80;;;2.67;;
823;SDS011;373;49.342;8.146;2023-08-31T20:36:06;2.25;;;1.92;;
823;SDS011;373;49.342;8.146;2023-08-31T20:38:34;4.78;;;2.83;;
823;SDS011;373;49.342;8.146;2023-08-31T20:41:02;3.00;;;2.47;;
823;SDS011;373;49.342;8.146;2023-08-31T20:43:29;4.32;;;2.33;;
823;SDS011;373;49.342;8.146;2023-08-31T20:46:05;3.08;;;2.33;;
823;SDS011;373;49.342;8.146;2023-08-31T20:48:32;3.42;;;3.13;;
823;SDS011;373;49.342;8.146;2023-08-31T20:51:00;4.28;;;2.30;;
823;SDS011;373;49.342;8.146;2023-08-31T20:53:28;4.35;;;2.65;;
823;SDS011;373;49.342;8.146;2023-08-31T20:56:02;3.10;;;2.75;;
823;SDS011;373;49.342;8.146;2023-08-31T20:58:30;3.30;;;2.72;;